Time;durP1;ratioP1;P1;durP2;ratioP2;P2;SDS_P1;SDS_P2;PMS_P1;PMS_P2;Temp;Humidity;BMP_temperature;BMP_pressure;BME280_temperature;BME280_humidity;BME280_pressure;Samples;Min_cycle;Max_cycle;Signal;HPM_P1;HPM_P2
2022/03/14 00:01:39;;;;;;;19.58;14.32;;;9.50;99.90;;;;;;5059330;28;20652;-75
2022/03/14 00:04:06;;;;;;;17.80;13.65;;;9.50;99.90;;;;;;5065348;28;20037;-75
2022/03/14 00:06:32;;;;;;;19.50;13.68;;;9.50;99.90;;;;;;5064256;28;20079;-76
2022/03/14 00:08:58;;;;;;;18.23;13.77;;;9.40;99.90;;;;;;5066068;28;20049;-75
2022/03/14 00:11:26;;;;;;;18.25;13.45;;;9.30;99.90;;;;;;5058548;28;20116;-75
2022/03/14 00:13:55;;;;;;;18.15;13.98;;;9.30;99.90;;;;;;5068567;28;20140;-76
2022/03/14 00:16:25;;;;;;;19.27;13.38;;;9.30;99.90;;;;;;5066591;28;20082;-75
2022/03/14 00:18:53;;;;;;;21.90;15.20;;;9.20;99.90;;;;;;5065309;28;20062;-76
2022/03/14 00:21:23;;;;;;;17.40;14.13;;;9.30;99.90;;;;;;5062194;28;20099;-76
2022/03/14 00:23:54;;;;;;;18.25;13.23;;;9.20;99.90;;;;;;5065849;28;20067;-76
2022/03/14 00:26:21;;;;;;;;;;;9.20;99.90;;;;;;5068738;28;20051;-76
2022/03/14 00:28:50;;;;;;;19.63;13.65;;;9.20;99.90;;;;;;5067305;28;20366;-76
2022/03/14 00:31:16;;;;;;;16.88;12.57;;;9.20;99.90;;;;;;5063546;28;20506;-76
2022/03/14 00:33:42;;;;;;;17.70;12.00;;;9.20;99.90;;;;;;5063002;28;20044;-75
2022/03/14 00:36:08;;;;;;;18.33;13.48;;;9.30;99.90;;;;;;5041194;28;20040;-75
2022/03/14 00:38:38;;;;;;;17.58;13.82;;;9.30;99.90;;;;;;5076227;28;20494;-76
2022/03/14 00:41:05;;;;;;;16.00;12.15;;;9.30;99.90;;;;;;5049808;28;20041;-75
2022/03/14 00:43:31;;;;;;;17.85;12.57;;;9.30;99.90;;;;;;5061480;28;20048;-76
2022/03/14 00:45:57;;;;;;;17.45;12.50;;;9.40;99.90;;;;;;5071188;28;20672;-76
2022/03/14 00:48:23;;;;;;;15.50;13.07;;;9.30;99.90;;;;;;5045033;28;20094;-76
2022/03/14 00:50:49;;;;;;;18.58;13.60;;;9.30;99.90;;;;;;5069057;28;20147;-76
2022/03/14 00:53:15;;;;;;;16.98;11.95;;;9.30;99.90;;;;;;5063209;28;20036;-76
2022/03/14 00:55:41;;;;;;;20.83;14.07;;;9.40;99.90;;;;;;5069277;28;20048;-74
2022/03/14 00:58:07;;;;;;;17.55;12.52;;;9.40;99.90;;;;;;5067819;28;20045;-76
2022/03/14 01:00:33;;;;;;;17.65;13.13;;;9.50;99.90;;;;;;5053055;28;20082;-76
2022/03/14 01:02:59;;;;;;;16.48;11.88;;;9.50;99.90;;;;;;5070978;28;20380;-77
2022/03/14 01:05:28;;;;;;;16.42;12.82;;;9.50;99.90;;;;;;5066675;28;20052;-75
2022/03/14 01:07:54;;;;;;;16.20;11.93;;;9.60;99.90;;;;;;5067562;28;20043;-76
2022/03/14 01:10:20;;;;;;;16.65;12.88;;;9.50;99.90;;;;;;5052398;28;20055;-76
2022/03/14 01:12:46;;;;;;;17.13;12.23;;;9.50;99.90;;;;;;5064512;28;20053;-76
2022/03/14 01:15:12;;;;;;;15.15;11.48;;;9.50;99.90;;;;;;5068903;28;20410;-76
2022/03/14 01:17:39;;;;;;;15.38;11.32;;;9.40;99.90;;;;;;5068067;28;20052;-76
2022/03/14 01:20:05;;;;;;;18.60;12.40;;;9.40;99.90;;;;;;5067360;28;20044;-77
2022/03/14 01:22:31;;;;;;;13.65;10.52;;;9.40;99.90;;;;;;5067012;28;20466;-76
2022/03/14 01:24:57;;;;;;;18.08;12.70;;;9.40;99.90;;;;;;5070572;28;20502;-77
2022/03/14 01:27:22;;;;;;;14.05;11.00;;;9.40;99.90;;;;;;5065591;28;20108;-77
2022/03/14 01:29:48;;;;;;;14.60;12.32;;;9.40;99.90;;;;;;5051747;28;20048;-76
2022/03/14 01:32:13;;;;;;;15.48;11.48;;;9.40;99.90;;;;;;5064986;28;20044;-76
2022/03/14 01:34:39;;;;;;;17.95;13.70;;;9.40;99.90;;;;;;5055627;28;20053;-77
2022/03/14 01:37:05;;;;;;;15.27;11.10;;;9.30;99.90;;;;;;5061510;28;20127;-77
2022/03/14 01:39:31;;;;;;;14.60;12.25;;;9.30;99.90;;;;;;5064326;28;20045;-76
2022/03/14 01:41:57;;;;;;;16.70;12.20;;;9.30;99.90;;;;;;5064721;28;20471;-77
2022/03/14 01:44:23;;;;;;;14.30;11.95;;;9.40;99.90;;;;;;5061998;28;20465;-76
2022/03/14 01:46:49;;;;;;;15.20;11.60;;;9.40;99.90;;;;;;5056964;28;20052;-76
2022/03/14 01:49:15;;;;;;;14.02;11.95;;;9.40;99.90;;;;;;5057719;28;20053;-77
2022/03/14 01:51:41;;;;;;;15.73;12.75;;;9.30;99.90;;;;;;5051964;28;20037;-77
2022/03/14 01:54:11;;;;;;;15.77;12.48;;;9.30;99.90;;;;;;5058698;28;20044;-76
2022/03/14 01:56:39;;;;;;;18.08;13.55;;;9.20;99.90;;;;;;5070279;28;20048;-76
2022/03/14 01:59:05;;;;;;;16.25;12.65;;;9.30;99.90;;;;;;5063234;28;20080;-77
2022/03/14 02:01:32;;;;;;;15.30;11.48;;;9.30;99.90;;;;;;5060146;28;20398;-78
2022/03/14 02:03:59;;;;;;;14.15;11.98;;;9.30;99.90;;;;;;5059779;28;20044;-78
2022/03/14 02:06:27;;;;;;;15.48;11.95;;;9.30;99.90;;;;;;5061776;28;20047;-76
2022/03/14 02:08:53;;;;;;;17.63;12.63;;;9.40;99.90;;;;;;5060237;28;20079;-75
2022/03/14 02:11:19;;;;;;;15.35;12.10;;;9.30;99.90;;;;;;5056375;28;20061;-75
2022/03/14 02:13:45;;;;;;;14.80;11.55;;;9.40;99.90;;;;;;5059784;28;20467;-76
2022/03/14 02:16:11;;;;;;;15.77;12.35;;;9.30;99.90;;;;;;5061422;28;20118;-76
2022/03/14 02:18:36;;;;;;;19.85;13.18;;;9.40;99.90;;;;;;5065821;28;20045;-77
2022/03/14 02:21:02;;;;;;;13.25;10.88;;;9.40;99.90;;;;;;5058405;28;20106;-76
2022/03/14 02:23:28;;;;;;;15.40;12.10;;;9.40;99.90;;;;;;5060791;28;20044;-77
2022/03/14 02:25:55;;;;;;;16.20;11.15;;;9.40;99.90;;;;;;5061817;28;20570;-76
2022/03/14 02:28:22;;;;;;;15.00;11.80;;;9.40;99.90;;;;;;5064343;28;20032;-76
2022/03/14 02:30:51;;;;;;;14.90;11.35;;;9.40;99.90;;;;;;5063173;28;20044;-77
2022/03/14 02:33:17;;;;;;;17.15;12.10;;;9.50;99.90;;;;;;5059502;28;20056;-77
2022/03/14 02:35:43;;;;;;;14.82;11.73;;;9.50;99.90;;;;;;5060153;28;20554;-77
2022/03/14 02:38:14;;;;;;;12.80;10.32;;;9.50;99.90;;;;;;5057040;28;20044;-75
2022/03/14 02:40:46;;;;;;;13.32;10.45;;;9.50;99.90;;;;;;5056707;28;20111;-76
2022/03/14 02:43:24;;;;;;;13.15;10.88;;;9.50;99.90;;;;;;5066844;28;20040;-76
2022/03/14 02:45:51;;;;;;;12.85;10.13;;;9.50;99.90;;;;;;5059350;28;20441;-77
2022/03/14 02:48:18;;;;;;;12.75;9.98;;;9.50;99.90;;;;;;5060182;28;20071;-76
2022/03/14 02:50:43;;;;;;;10.27;9.20;;;9.50;99.90;;;;;;5062421;28;20045;-76
2022/03/14 02:53:13;;;;;;;13.95;10.18;;;9.40;99.90;;;;;;5070965;28;20516;-77
2022/03/14 02:55:39;;;;;;;10.55;9.43;;;9.40;99.90;;;;;;5055266;28;20049;-76
2022/03/14 02:58:06;;;;;;;13.48;9.48;;;9.40;99.90;;;;;;5066798;28;20052;-77
2022/03/14 03:00:32;;;;;;;15.38;11.23;;;9.40;99.90;;;;;;5063203;28;20041;-76
2022/03/14 03:02:59;;;;;;;12.95;10.02;;;9.40;99.90;;;;;;5065535;28;20100;-75
2022/03/14 03:05:24;;;;;;;11.55;9.45;;;9.40;99.90;;;;;;5063026;28;20512;-76
2022/03/14 03:07:50;;;;;;;11.57;9.00;;;9.40;99.90;;;;;;5066800;28;20116;-75
2022/03/14 03:10:19;;;;;;;14.40;10.90;;;9.40;99.90;;;;;;5063316;28;20067;-77
2022/03/14 03:12:45;;;;;;;12.75;9.90;;;9.40;99.90;;;;;;5067418;28;20044;-77
2022/03/14 03:15:15;;;;;;;12.82;9.82;;;9.40;99.90;;;;;;5061461;28;20041;-76
2022/03/14 03:17:43;;;;;;;15.80;10.00;;;9.40;99.90;;;;;;5068215;28;20040;-76
2022/03/14 03:20:09;;;;;;;12.25;9.35;;;9.30;99.90;;;;;;5062028;28;20043;-75
2022/03/14 03:22:35;;;;;;;12.57;10.02;;;9.40;99.90;;;;;;5056481;28;20123;-76
2022/03/14 03:25:01;;;;;;;13.98;9.20;;;9.40;99.90;;;;;;5051192;28;20094;-76
2022/03/14 03:27:27;;;;;;;11.57;9.00;;;9.30;99.90;;;;;;5063041;28;20402;-76
2022/03/14 03:29:52;;;;;;;9.73;8.23;;;9.40;99.90;;;;;;5069536;28;20135;-75
2022/03/14 03:32:18;;;;;;;13.80;10.35;;;9.40;99.90;;;;;;5065633;28;20048;-75
2022/03/14 03:34:44;;;;;;;10.07;8.52;;;9.40;99.90;;;;;;5053061;28;20497;-76
2022/03/14 03:37:09;;;;;;;11.43;8.57;;;9.40;99.90;;;;;;5065206;28;20097;-75
2022/03/14 03:39:35;;;;;;;12.65;8.88;;;9.40;99.90;;;;;;5065461;28;20132;-75
2022/03/14 03:42:01;;;;;;;12.02;10.32;;;9.40;99.90;;;;;;5056249;28;20044;-76
2022/03/14 03:44:27;;;;;;;10.38;8.20;;;9.30;99.90;;;;;;5059911;28;20068;-75
2022/03/14 03:46:52;;;;;;;12.80;9.57;;;9.40;99.90;;;;;;5058293;28;20183;-76
2022/03/14 03:49:18;;;;;;;10.43;9.05;;;9.30;99.90;;;;;;5059389;28;20052;-74
2022/03/14 03:51:43;;;;;;;9.38;7.45;;;9.30;99.90;;;;;;5057610;28;20423;-75
2022/03/14 03:54:09;;;;;;;9.38;7.13;;;9.30;99.90;;;;;;5063915;28;20040;-75
2022/03/14 03:56:35;;;;;;;8.95;7.18;;;9.30;99.90;;;;;;5061305;28;20040;-75
2022/03/14 03:59:00;;;;;;;10.65;8.38;;;9.30;99.90;;;;;;5061598;28;20410;-75
2022/03/14 04:01:29;;;;;;;10.20;7.65;;;9.30;99.90;;;;;;5059299;28;20063;-75
2022/03/14 04:03:54;;;;;;;9.68;7.18;;;9.30;99.90;;;;;;5063883;28;20510;-75
2022/03/14 04:06:30;;;;;;;11.02;7.88;;;9.30;99.90;;;;;;5060806;28;20083;-76
2022/03/14 04:09:00;;;;;;;9.43;7.90;;;9.30;99.90;;;;;;5062838;28;20093;-78
2022/03/14 04:11:26;;;;;;;9.60;8.50;;;9.20;99.90;;;;;;5060593;28;20053;-77
2022/03/14 04:13:54;;;;;;;8.85;7.28;;;9.20;99.90;;;;;;5065251;28;20045;-76
2022/03/14 04:16:21;;;;;;;7.88;7.07;;;9.20;99.90;;;;;;5065442;28;20491;-75
2022/03/14 04:18:47;;;;;;;9.07;7.65;;;9.10;99.90;;;;;;5060835;28;20147;-75
2022/03/14 04:21:14;;;;;;;9.85;6.82;;;9.10;99.90;;;;;;5064618;28;20131;-75
2022/03/14 04:23:40;;;;;;;9.48;6.47;;;9.10;99.90;;;;;;5061136;28;20040;-76
2022/03/14 04:26:05;;;;;;;9.48;7.28;;;9.00;99.90;;;;;;5065519;28;20127;-75
2022/03/14 04:28:31;;;;;;;9.25;7.28;;;8.90;99.90;;;;;;5063043;28;20088;-76
2022/03/14 04:30:58;;;;;;;7.63;5.90;;;8.90;99.90;;;;;;5069226;28;20043;-75
2022/03/14 04:33:24;;;;;;;7.47;5.78;;;8.90;99.90;;;;;;5062427;28;20073;-75
2022/03/14 04:35:49;;;;;;;8.13;6.20;;;8.90;99.90;;;;;;5059683;28;20148;-75
2022/03/14 04:38:16;;;;;;;8.85;5.80;;;8.90;99.90;;;;;;5060216;28;20044;-75
2022/03/14 04:40:42;;;;;;;6.03;5.32;;;8.90;99.90;;;;;;5063937;28;20174;-75
2022/03/14 04:43:09;;;;;;;7.05;5.93;;;9.00;99.90;;;;;;5071166;28;20514;-75
2022/03/14 04:45:36;;;;;;;7.30;5.13;;;9.00;99.90;;;;;;5065206;28;20040;-76
2022/03/14 04:48:02;;;;;;;6.38;5.22;;;9.00;99.90;;;;;;5070768;28;20526;-75
2022/03/14 04:50:28;;;;;;;6.72;5.47;;;9.00;99.90;;;;;;5061290;28;20084;-75
2022/03/14 04:52:54;;;;;;;6.25;5.63;;;9.00;99.90;;;;;;5059859;28;20069;-76
2022/03/14 04:55:20;;;;;;;5.65;4.82;;;9.00;99.90;;;;;;5059282;28;20066;-76
2022/03/14 04:57:45;;;;;;;6.30;5.55;;;9.00;99.90;;;;;;5059161;28;20045;-76
2022/03/14 05:00:12;;;;;;;6.78;4.45;;;9.00;99.90;;;;;;5059310;28;20564;-76
2022/03/14 05:02:37;;;;;;;6.53;5.43;;;9.00;99.90;;;;;;5063250;28;20536;-76
2022/03/14 05:05:03;;;;;;;6.60;4.85;;;9.10;99.90;;;;;;5043292;28;20044;-75
2022/03/14 05:07:29;;;;;;;5.78;4.70;;;9.10;99.90;;;;;;5066374;28;20666;-77
2022/03/14 05:09:55;;;;;;;6.50;5.20;;;9.00;99.90;;;;;;5061881;28;20044;-75
2022/03/14 05:12:20;;;;;;;10.98;4.57;;;9.10;99.90;;;;;;5065245;28;20045;-76
2022/03/14 05:14:50;;;;;;;5.13;4.13;;;9.00;99.90;;;;;;5066700;28;20566;-75
2022/03/14 05:17:16;;;;;;;7.53;5.53;;;9.00;99.90;;;;;;5068389;28;20052;-74
2022/03/14 05:19:42;;;;;;;7.13;4.57;;;9.00;99.90;;;;;;5064371;28;20130;-74
2022/03/14 05:22:07;;;;;;;4.30;3.53;;;9.00;99.90;;;;;;5070254;28;20044;-74
2022/03/14 05:24:33;;;;;;;5.13;4.43;;;9.10;99.90;;;;;;5062985;28;20044;-74
2022/03/14 05:26:58;;;;;;;5.93;5.15;;;9.10;99.90;;;;;;5059520;28;20039;-74
2022/03/14 05:29:24;;;;;;;5.10;4.38;;;9.10;99.90;;;;;;5060122;28;20483;-74
2022/03/14 05:31:50;;;;;;;3.75;3.40;;;9.10;99.90;;;;;;5060993;28;20047;-76
2022/03/14 05:34:15;;;;;;;3.85;3.45;;;9.20;99.90;;;;;;5055421;28;20515;-73
2022/03/14 05:36:41;;;;;;;4.30;3.38;;;9.20;99.90;;;;;;5054740;28;20048;-75
2022/03/14 05:39:07;;;;;;;3.83;3.35;;;9.20;99.90;;;;;;5064156;28;20526;-75
2022/03/14 05:41:32;;;;;;;4.40;3.47;;;9.30;99.90;;;;;;5062064;28;20560;-75
2022/03/14 05:43:58;;;;;;;4.70;2.63;;;9.20;99.90;;;;;;5058508;28;20071;-76
2022/03/14 05:46:24;;;;;;;6.25;2.75;;;9.30;99.90;;;;;;5026397;28;1057128;-77
2022/03/14 05:48:49;;;;;;;4.53;2.88;;;9.30;99.90;;;;;;5065329;28;20482;-75
2022/03/14 05:51:15;;;;;;;3.85;2.97;;;9.40;99.90;;;;;;5055528;28;20028;-76
2022/03/14 05:53:41;;;;;;;3.05;2.70;;;9.40;99.90;;;;;;5060852;28;20056;-74
2022/03/14 05:56:06;;;;;;;4.03;2.92;;;9.40;99.90;;;;;;5061351;28;20079;-74
2022/03/14 05:58:32;;;;;;;3.28;2.63;;;9.40;99.90;;;;;;5065223;28;20036;-74
2022/03/14 06:00:57;;;;;;;4.80;2.63;;;9.50;99.90;;;;;;5058289;28;20064;-75
2022/03/14 06:03:23;;;;;;;3.72;2.70;;;9.50;99.90;;;;;;5060266;28;20139;-75
2022/03/14 06:05:49;;;;;;;5.65;3.38;;;9.40;99.90;;;;;;5061525;28;20040;-74
2022/03/14 06:08:18;;;;;;;4.40;2.90;;;9.40;99.90;;;;;;5061418;28;20090;-74
2022/03/14 06:10:46;;;;;;;3.85;2.92;;;9.40;99.90;;;;;;5059656;28;20071;-75
2022/03/14 06:13:15;;;;;;;4.90;4.38;;;9.30;99.90;;;;;;5059199;28;20503;-75
2022/03/14 06:15:41;;;;;;;4.07;3.47;;;9.30;99.90;;;;;;5063173;28;20139;-75
2022/03/14 06:18:07;;;;;;;3.60;3.20;;;9.30;99.90;;;;;;5058276;28;20040;-75
2022/03/14 06:20:34;;;;;;;4.22;3.70;;;9.30;99.90;;;;;;5059381;28;20400;-75
2022/03/14 06:23:00;;;;;;;3.72;3.00;;;9.40;99.90;;;;;;5066314;28;20044;-75
2022/03/14 06:25:25;;;;;;;6.88;2.80;;;9.40;99.90;;;;;;5067921;28;20032;-76
2022/03/14 06:27:51;;;;;;;2.95;2.40;;;9.40;99.90;;;;;;5060633;28;20041;-75
2022/03/14 06:30:16;;;;;;;4.15;3.45;;;9.40;99.90;;;;;;5044689;28;20047;-75
2022/03/14 06:32:43;;;;;;;2.85;2.40;;;9.50;99.90;;;;;;5066329;28;20102;-75
2022/03/14 06:35:12;;;;;;;3.22;2.60;;;9.50;99.90;;;;;;5058591;28;20090;-75
2022/03/14 06:37:38;;;;;;;4.97;3.03;;;9.50;99.90;;;;;;5059444;28;20560;-76
2022/03/14 06:40:04;;;;;;;3.97;2.83;;;9.50;99.90;;;;;;5063848;28;20398;-75
2022/03/14 06:42:30;;;;;;;2.67;2.47;;;9.60;99.90;;;;;;5060822;28;20044;-75
2022/03/14 06:45:03;;;;;;;4.57;2.55;;;9.60;99.90;;;;;;5065965;28;20044;-76
2022/03/14 06:47:29;;;;;;;3.30;2.80;;;9.60;99.90;;;;;;5068254;28;20603;-76
2022/03/14 06:49:54;;;;;;;3.78;2.85;;;9.60;99.90;;;;;;5050598;28;20395;-74
2022/03/14 06:52:20;;;;;;;3.65;2.95;;;9.70;99.90;;;;;;5060177;28;20458;-74
2022/03/14 06:54:46;;;;;;;3.67;2.85;;;9.70;99.90;;;;;;5060165;28;20044;-74
2022/03/14 06:57:11;;;;;;;4.72;2.78;;;9.70;99.90;;;;;;5062570;28;20044;-75
2022/03/14 06:59:37;;;;;;;3.05;2.58;;;9.70;99.90;;;;;;5065097;28;20062;-75
2022/03/14 07:02:04;;;;;;;3.38;2.67;;;9.70;99.90;;;;;;5064659;28;20097;-75
2022/03/14 07:04:30;;;;;;;6.00;3.97;;;9.70;99.90;;;;;;5062165;28;20043;-75
2022/03/14 07:06:56;;;;;;;5.95;4.13;;;9.70;99.90;;;;;;5063002;28;20040;-76
2022/03/14 07:09:22;;;;;;;4.95;3.20;;;9.70;99.90;;;;;;5069281;28;20032;-76
2022/03/14 07:11:51;;;;;;;3.63;3.33;;;9.70;99.90;;;;;;5063420;28;20048;-76
2022/03/14 07:14:21;;;;;;;3.63;2.97;;;9.80;99.90;;;;;;5064911;28;20063;-75
2022/03/14 07:16:47;;;;;;;5.57;3.88;;;9.80;99.90;;;;;;5049798;28;20272;-77
2022/03/14 07:19:12;;;;;;;6.68;3.45;;;9.80;99.90;;;;;;5047342;28;20483;-74
2022/03/14 07:21:38;;;;;;;4.32;3.75;;;9.80;99.90;;;;;;5062285;28;20044;-77
2022/03/14 07:24:04;;;;;;;4.38;3.95;;;9.80;99.90;;;;;;5067885;28;20040;-74
2022/03/14 07:26:30;;;;;;;4.40;3.50;;;9.80;99.90;;;;;;5066769;28;20137;-75
2022/03/14 07:28:55;;;;;;;5.55;3.33;;;9.90;99.90;;;;;;5065002;28;20091;-75
2022/03/14 07:31:21;;;;;;;3.42;2.95;;;9.90;99.90;;;;;;5058221;28;20032;-74
2022/03/14 07:33:48;;;;;;;3.92;3.40;;;9.90;99.90;;;;;;5059952;28;20127;-75
2022/03/14 07:36:13;;;;;;;5.70;4.15;;;9.90;99.90;;;;;;5055847;28;20042;-75
2022/03/14 07:38:39;;;;;;;3.97;3.60;;;9.90;99.90;;;;;;5060265;28;20033;-74
2022/03/14 07:41:05;;;;;;;4.72;3.38;;;9.90;99.90;;;;;;5067698;28;20044;-75
2022/03/14 07:43:30;;;;;;;4.45;3.45;;;10.00;99.90;;;;;;5066900;28;20039;-74
2022/03/14 07:45:56;;;;;;;7.28;5.00;;;10.00;99.90;;;;;;5066902;28;20139;-75
2022/03/14 07:48:22;;;;;;;7.10;4.18;;;10.00;99.90;;;;;;5067140;28;20052;-74
2022/03/14 07:50:47;;;;;;;5.22;4.50;;;10.00;99.90;;;;;;5068762;28;20482;-75
2022/03/14 07:53:13;;;;;;;4.60;3.97;;;10.00;99.90;;;;;;5066285;28;20044;-74
2022/03/14 07:55:39;;;;;;;5.47;4.57;;;10.00;99.90;;;;;;5068776;28;20048;-74
2022/03/14 07:58:05;;;;;;;4.80;3.90;;;10.00;99.90;;;;;;5058767;28;20098;-75
2022/03/14 08:00:31;;;;;;;5.43;4.78;;;10.10;99.90;;;;;;5060349;28;20049;-75
2022/03/14 08:02:56;;;;;;;7.40;6.22;;;10.10;99.90;;;;;;5064976;28;20513;-75
2022/03/14 08:05:26;;;;;;;5.72;4.72;;;10.10;99.90;;;;;;5067907;28;20037;-75
2022/03/14 08:07:53;;;;;;;6.45;5.40;;;10.10;99.90;;;;;;5067204;28;20028;-74
2022/03/14 08:10:19;;;;;;;7.60;6.15;;;10.20;99.90;;;;;;5050096;28;20048;-77
2022/03/14 08:12:53;;;;;;;7.85;6.22;;;10.20;99.90;;;;;;5049369;28;20083;-75
2022/03/14 08:15:32;;;;;;;7.50;6.22;;;10.10;99.90;;;;;;5049331;28;20102;-74
2022/03/14 08:18:03;;;;;;;7.63;6.65;;;10.10;99.90;;;;;;5051213;28;20139;-75
2022/03/14 08:20:29;;;;;;;8.65;7.40;;;10.10;99.90;;;;;;5068124;28;20052;-75
2022/03/14 08:22:58;;;;;;;8.73;7.22;;;10.10;99.90;;;;;;5054606;28;20024;-74
2022/03/14 08:25:24;;;;;;;8.82;7.35;;;10.00;99.90;;;;;;5069623;28;20044;-75
2022/03/14 08:27:50;;;;;;;8.43;7.20;;;10.00;99.90;;;;;;5067830;28;20041;-75
2022/03/14 08:30:17;;;;;;;9.00;7.65;;;10.10;99.90;;;;;;5065703;28;20433;-76
2022/03/14 08:32:44;;;;;;;9.60;7.85;;;10.00;99.90;;;;;;5064765;28;20161;-74
2022/03/14 08:35:10;;;;;;;9.82;8.82;;;10.00;99.90;;;;;;5064902;28;20487;-75
2022/03/14 08:37:41;;;;;;;18.05;13.43;;;10.10;99.90;;;;;;5068544;28;20111;-75
2022/03/14 08:40:09;;;;;;;19.25;16.30;;;10.00;99.90;;;;;;5071018;28;20051;-75
2022/03/14 08:42:35;;;;;;;21.38;19.13;;;10.00;99.90;;;;;;5072259;28;20514;-75
2022/03/14 08:45:02;;;;;;;22.88;20.08;;;10.00;99.90;;;;;;5070837;28;20112;-75
2022/03/14 08:47:28;;;;;;;22.73;19.08;;;9.90;99.90;;;;;;5071019;28;20052;-75
2022/03/14 08:49:54;;;;;;;24.73;20.08;;;9.90;99.90;;;;;;5063235;28;20055;-75
2022/03/14 08:52:19;;;;;;;28.42;20.77;;;9.90;99.90;;;;;;5065025;28;20082;-75
2022/03/14 08:54:45;;;;;;;24.55;20.95;;;9.90;99.90;;;;;;5071909;28;20441;-75
2022/03/14 08:57:11;;;;;;;23.25;20.65;;;9.90;99.90;;;;;;5071093;28;20117;-76
2022/03/14 08:59:36;;;;;;;26.00;22.38;;;9.90;99.90;;;;;;5065319;28;20552;-75
2022/03/14 09:02:02;;;;;;;24.77;20.17;;;9.90;99.90;;;;;;5067042;28;20210;-77
2022/03/14 09:04:28;;;;;;;26.27;20.73;;;9.80;99.90;;;;;;5068368;28;20090;-78
2022/03/14 09:06:55;;;;;;;26.02;21.58;;;9.80;99.90;;;;;;5044032;28;20048;-80
2022/03/14 09:09:20;;;;;;;28.33;23.38;;;9.70;99.90;;;;;;5073753;28;20045;-78
2022/03/14 09:11:46;;;;;;;27.38;23.13;;;9.60;99.90;;;;;;5067545;28;20082;-76
2022/03/14 09:14:12;;;;;;;29.58;23.88;;;9.70;99.90;;;;;;5053213;28;20456;-81
2022/03/14 09:16:37;;;;;;;30.42;24.73;;;9.70;99.90;;;;;;5068877;28;20056;-76
2022/03/14 09:19:03;;;;;;;34.70;26.40;;;9.60;99.90;;;;;;5070917;28;20093;-77
2022/03/14 09:21:30;;;;;;;36.13;26.40;;;9.60;99.90;;;;;;5069671;28;20040;-77
2022/03/14 09:23:56;;;;;;;31.33;24.10;;;9.70;99.90;;;;;;5073345;28;20045;-76
2022/03/14 09:26:21;;;;;;;29.08;21.80;;;9.60;99.90;;;;;;5070797;28;20415;-79
2022/03/14 09:28:49;;;;;;;34.47;23.50;;;9.60;99.90;;;;;;5062823;28;20047;-78
2022/03/14 09:31:14;;;;;;;31.75;23.20;;;9.50;99.90;;;;;;5072916;28;20053;-76
2022/03/14 09:33:40;;;;;;;36.13;26.27;;;9.60;99.90;;;;;;5064905;28;20085;-76
2022/03/14 09:36:07;;;;;;;34.97;23.70;;;9.70;99.90;;;;;;5064877;28;20134;-76
2022/03/14 09:38:33;;;;;;;34.92;22.65;;;9.70;99.90;;;;;;5052189;28;20082;-77
2022/03/14 09:41:03;;;;;;;32.45;22.58;;;9.60;99.90;;;;;;5052245;28;20051;-77
2022/03/14 09:43:37;;;;;;;30.80;23.30;;;9.60;99.90;;;;;;5052668;28;20059;-76
2022/03/14 09:46:05;;;;;;;32.05;21.20;;;9.70;99.90;;;;;;5058856;28;20079;-77
2022/03/14 09:48:36;;;;;;;30.40;21.73;;;9.60;99.90;;;;;;5068774;28;20044;-77
2022/03/14 09:51:03;;;;;;;27.40;18.88;;;9.70;99.90;;;;;;5065919;28;20106;-76
2022/03/14 09:53:29;;;;;;;30.95;21.05;;;9.70;99.90;;;;;;5068320;28;20091;-76
2022/03/14 09:55:56;;;;;;;28.52;16.90;;;9.80;99.90;;;;;;5061201;28;20082;-78
2022/03/14 09:58:22;;;;;;;26.95;17.63;;;9.80;99.90;;;;;;5070416;28;20048;-78
2022/03/14 10:00:49;;;;;;;28.73;13.27;;;9.90;99.90;;;;;;5070837;28;20047;-77
2022/03/14 10:03:16;;;;;;;23.35;15.43;;;9.80;99.90;;;;;;5063713;28;20028;-78
2022/03/14 10:05:44;;;;;;;21.63;13.93;;;9.90;99.90;;;;;;5066578;28;20383;-75
2022/03/14 10:08:10;;;;;;;18.23;11.65;;;9.90;99.90;;;;;;5070919;28;20458;-77
2022/03/14 10:10:39;;;;;;;24.83;12.32;;;9.90;99.90;;;;;;5070795;28;20128;-77
2022/03/14 10:13:06;;;;;;;23.73;10.90;;;9.90;99.90;;;;;;5071280;28;20379;-77
2022/03/14 10:15:36;;;;;;;20.08;13.25;;;9.90;99.90;;;;;;5064215;28;21581;-76
2022/03/14 10:18:13;;;;;;;22.98;12.77;;;10.00;99.90;;;;;;5068216;28;20090;-76
2022/03/14 10:21:05;;;;;;;20.73;12.30;;;10.00;99.90;;;;;;5057888;28;20041;-77
2022/03/14 10:23:43;;;;;;;33.42;13.50;;;10.10;99.90;;;;;;5050628;28;20067;-76
2022/03/14 10:26:17;;;;;;;21.80;12.23;;;10.30;99.90;;;;;;5050886;28;20051;-78
2022/03/14 10:28:48;;;;;;;20.65;11.63;;;10.30;99.90;;;;;;5059851;28;20127;-77
2022/03/14 10:31:14;;;;;;;22.05;11.98;;;10.20;99.90;;;;;;5063895;28;20040;-77
2022/03/14 10:33:40;;;;;;;22.98;10.48;;;10.30;99.90;;;;;;5057919;28;20048;-76
2022/03/14 10:36:07;;;;;;;17.63;8.13;;;10.40;99.90;;;;;;5069827;28;20052;-77
2022/03/14 10:38:42;;;;;;;19.05;9.40;;;10.30;99.90;;;;;;5063138;28;20041;-77
2022/03/14 10:41:17;;;;;;;15.60;8.60;;;10.40;99.90;;;;;;5054864;28;20086;-77
2022/03/14 10:43:42;;;;;;;17.33;8.88;;;10.40;99.90;;;;;;5069336;28;20146;-76
2022/03/14 10:46:08;;;;;;;14.95;7.57;;;10.40;99.90;;;;;;5063693;28;20131;-77
2022/03/14 10:48:38;;;;;;;21.00;8.30;;;10.40;99.90;;;;;;5068456;28;20070;-76
2022/03/14 10:51:12;;;;;;;22.73;8.80;;;10.30;99.90;;;;;;5067199;28;20037;-76
2022/03/14 10:53:46;;;;;;;26.15;9.35;;;10.40;99.90;;;;;;5069281;28;20557;-77
2022/03/14 10:56:13;;;;;;;14.80;8.45;;;10.30;99.90;;;;;;5069969;28;20059;-75
2022/03/14 10:58:39;;;;;;;9.65;6.63;;;10.40;99.90;;;;;;5069591;28;20052;-75
2022/03/14 11:01:12;;;;;;;18.10;7.47;;;10.30;99.90;;;;;;5064435;28;20505;-78
2022/03/14 11:03:40;;;;;;;17.92;9.45;;;10.30;99.90;;;;;;5062971;28;20452;-76
2022/03/14 11:06:08;;;;;;;24.77;9.60;;;10.40;99.90;;;;;;5068881;28;20044;-76
2022/03/14 11:08:42;;;;;;;14.25;8.90;;;10.40;99.90;;;;;;5067826;28;20040;-76
2022/03/14 11:11:20;;;;;;;19.35;8.35;;;10.30;99.90;;;;;;5063584;28;20080;-76
2022/03/14 11:13:51;;;;;;;11.30;6.72;;;10.30;99.90;;;;;;5068366;28;20086;-77
2022/03/14 11:16:28;;;;;;;12.77;7.60;;;10.30;99.90;;;;;;5065274;28;20044;-77
2022/03/14 11:18:54;;;;;;;17.63;6.75;;;10.40;99.90;;;;;;5069327;28;20043;-77
2022/03/14 11:21:27;;;;;;;22.30;9.13;;;10.50;99.90;;;;;;5063634;28;20037;-76
2022/03/14 11:23:54;;;;;;;18.45;8.90;;;10.50;99.90;;;;;;5058847;28;20052;-76
2022/03/14 11:26:25;;;;;;;19.38;10.02;;;10.60;99.90;;;;;;5067524;28;20032;-77
2022/03/14 11:28:53;;;;;;;23.45;11.20;;;10.60;99.90;;;;;;5069753;28;20044;-76
2022/03/14 11:31:23;;;;;;;27.35;13.77;;;10.70;99.90;;;;;;5068748;28;20506;-76
2022/03/14 11:33:49;;;;;;;20.70;9.38;;;10.70;99.90;;;;;;5053103;28;20134;-78
2022/03/14 11:36:18;;;;;;;18.05;10.27;;;10.70;99.90;;;;;;5061138;28;20200;-78
2022/03/14 11:38:44;;;;;;;21.45;11.10;;;10.70;99.90;;;;;;5068039;28;20119;-77
2022/03/14 11:41:10;;;;;;;20.60;11.55;;;10.80;99.90;;;;;;5069885;28;20117;-78
2022/03/14 11:43:39;;;;;;;31.35;13.73;;;10.70;99.90;;;;;;5063010;28;20388;-76
2022/03/14 11:46:04;;;;;;;13.45;10.90;;;10.70;99.90;;;;;;5068843;28;20091;-78
2022/03/14 11:48:32;;;;;;;24.02;11.43;;;10.90;99.90;;;;;;5068158;28;20098;-78
2022/03/14 11:51:00;;;;;;;27.77;14.35;;;11.00;99.90;;;;;;5069009;28;20055;-78
2022/03/14 11:53:34;;;;;;;25.67;13.65;;;10.90;99.90;;;;;;5064514;28;20040;-76
2022/03/14 11:56:06;;;;;;;27.05;12.45;;;11.00;99.90;;;;;;5081849;28;20377;-77
2022/03/14 11:58:36;;;;;;;25.33;12.48;;;11.00;99.90;;;;;;5049129;28;20045;-76
2022/03/14 12:01:18;;;;;;;18.63;11.75;;;11.10;99.90;;;;;;5055294;28;20044;-79
2022/03/14 12:03:53;;;;;;;29.10;12.88;;;11.20;99.90;;;;;;5066521;28;20044;-79
2022/03/14 12:06:45;;;;;;;17.88;11.00;;;11.10;99.90;;;;;;5068426;28;20032;-79
2022/03/14 12:09:11;;;;;;;17.40;12.63;;;11.30;99.90;;;;;;5059418;28;20079;-80
2022/03/14 12:11:41;;;;;;;25.42;11.73;;;11.30;99.90;;;;;;5059169;28;20076;-78
2022/03/14 12:14:12;;;;;;;29.25;13.48;;;11.30;99.90;;;;;;5055597;28;20072;-76
2022/03/14 12:16:38;;;;;;;21.42;13.00;;;11.30;99.90;;;;;;5050708;28;20060;-74
2022/03/14 12:19:25;;;;;;;26.35;12.27;;;11.30;99.90;;;;;;5032466;28;20045;-77
2022/03/14 12:21:52;;;;;;;20.98;12.43;;;11.40;99.90;;;;;;5051154;28;20091;-76
2022/03/14 12:24:46;;;;;;;24.90;11.93;;;11.50;99.90;;;;;;5051528;28;20056;-75
2022/03/14 12:27:16;;;;;;;33.78;13.02;;;11.60;99.90;;;;;;5049925;28;20052;-76
2022/03/14 12:29:43;;;;;;;26.10;12.27;;;11.70;99.90;;;;;;5050929;28;20076;-75
2022/03/14 12:32:35;;;;;;;22.08;12.85;;;11.60;99.90;;;;;;5050663;28;20041;-75
2022/03/14 12:35:11;;;;;;;22.98;12.73;;;11.50;99.90;;;;;;5050894;28;20132;-76
2022/03/14 12:37:47;;;;;;;20.33;11.07;;;11.70;99.90;;;;;;5049471;28;20301;-75
2022/03/14 12:40:21;;;;;;;20.15;10.88;;;11.80;99.90;;;;;;5060180;28;20036;-76
2022/03/14 12:42:48;;;;;;;15.60;11.07;;;11.70;99.90;;;;;;5070415;28;20413;-77
2022/03/14 12:45:24;;;;;;;26.42;11.27;;;11.80;99.90;;;;;;5070642;28;20555;-76